Time;durP1;ratioP1;P1;durP2;ratioP2;P2;SDS_P1;SDS_P2;PMS_P1;PMS_P2;Temp;Humidity;BMP_temperature;BMP_pressure;BME280_temperature;BME280_humidity;BME280_pressure;Samples;Min_cycle;Max_cycle;Signal;HPM_P1;HPM_P2
2022/03/20 00:01:34;;;;;;;23.55;18.73;;;;;;;30.15;59.98;100786.31;5066725;28;70251;-38
2022/03/20 00:04:05;;;;;;;21.25;18.33;;;;;;;30.21;60.87;100788.13;5068520;28;64895;-39
2022/03/20 00:06:36;;;;;;;28.08;19.42;;;;;;;30.22;61.26;100784.41;5071040;27;70984;-39
2022/03/20 00:09:07;;;;;;;23.98;20.05;;;;;;;30.28;61.39;100797.06;5072281;28;64904;-39
2022/03/20 00:11:38;;;;;;;22.75;18.88;;;;;;;30.31;61.10;100794.97;5061974;28;70069;-40
2022/03/20 00:14:09;;;;;;;24.80;19.30;;;;;;;30.35;62.26;100807.03;5044456;28;65960;-39
2022/03/20 00:16:40;;;;;;;22.05;19.52;;;;;;;30.40;62.09;100816.13;5065605;28;68881;-38
2022/03/20 00:19:12;;;;;;;23.13;20.37;;;;;;;30.44;61.44;100821.94;5057513;28;65655;-38
2022/03/20 00:21:43;;;;;;;24.02;20.17;;;;;;;30.46;63.23;100822.56;5060345;28;70172;-38
2022/03/20 00:24:15;;;;;;;21.30;18.93;;;;;;;30.46;62.83;100820.66;5058691;28;65091;-44
2022/03/20 00:26:46;;;;;;;;;;;;;;;30.22;63.69;100826.84;5043619;28;68440;-40
2022/03/20 00:29:17;;;;;;;22.23;19.80;;;;;;;30.53;63.76;100836.84;5074894;27;66507;-39
2022/03/20 00:31:48;;;;;;;23.63;19.90;;;;;;;30.56;63.57;100844.53;5060566;28;70086;-40
2022/03/20 00:34:19;;;;;;;31.27;21.85;;;;;;;30.59;64.16;100857.66;5067306;27;67173;-39
2022/03/20 00:36:50;;;;;;;33.05;22.95;;;;;;;30.62;64.09;100857.22;5071229;27;69404;-39
2022/03/20 00:39:21;;;;;;;29.15;21.85;;;;;;;30.67;63.78;100864.66;5058331;27;66430;-39
2022/03/20 00:41:51;;;;;;;29.48;21.80;;;;;;;30.60;64.29;100859.31;5057167;28;69398;-39
2022/03/20 00:44:22;;;;;;;26.98;21.73;;;;;;;30.69;63.73;100866.09;5070452;27;65979;-39
2022/03/20 00:46:53;;;;;;;36.80;24.13;;;;;;;30.27;64.37;100799.97;5052245;28;70151;-39
2022/03/20 00:49:24;;;;;;;34.97;24.90;;;;;;;30.75;64.61;100866.28;5064540;28;65232;-40
2022/03/20 00:51:55;;;;;;;48.28;26.02;;;;;;;30.79;64.31;100879.16;5071282;28;70400;-40
2022/03/20 00:54:25;;;;;;;41.83;27.27;;;;;;;30.80;65.04;100880.03;5056772;28;66072;-42
2022/03/20 00:56:58;;;;;;;50.08;27.35;;;;;;;30.81;65.06;100876.25;5061125;28;69809;-39
2022/03/20 00:59:28;;;;;;;44.97;28.27;;;;;;;30.83;65.83;100876.88;5073826;28;66279;-40
2022/03/20 01:01:59;;;;;;;54.05;29.17;;;;;;;30.89;65.52;100878.69;5059478;28;70660;-39
2022/03/20 01:04:30;;;;;;;47.08;28.83;;;;;;;30.89;66.42;100892.25;5071472;28;66960;-40
2022/03/20 01:07:02;;;;;;;55.00;29.97;;;;;;;30.90;66.69;100891.22;5052843;28;68527;-39
2022/03/20 01:09:33;;;;;;;43.25;28.65;;;;;;;30.93;66.90;100901.59;5060631;27;66346;-39
2022/03/20 01:12:08;;;;;;;47.55;27.60;;;;;;;30.61;67.21;100844.72;5073826;28;70534;-40
2022/03/20 01:14:39;;;;;;;42.15;27.48;;;;;;;30.99;66.96;100895.28;5074359;28;66475;-39
2022/03/20 01:17:10;;;;;;;44.13;28.13;;;;;;;30.97;67.42;100900.09;5059210;28;69619;-38
2022/03/20 01:19:41;;;;;;;48.90;32.42;;;;;;;30.98;67.82;100904.47;5073062;28;66657;-39
2022/03/20 01:22:11;;;;;;;48.08;32.22;;;;;;;30.99;67.50;100900.72;5065050;28;70210;-38
2022/03/20 01:24:42;;;;;;;50.75;32.78;;;;;;;31.02;67.23;100900.28;5066618;27;66013;-38
2022/03/20 01:27:15;;;;;;;42.97;32.58;;;;;;;30.99;67.14;100906.13;5070678;28;70074;-39
2022/03/20 01:29:46;;;;;;;42.92;28.77;;;;;;;31.03;67.40;100912.75;5063897;27;66193;-37
2022/03/20 01:32:17;;;;;;;42.60;25.17;;;;;;;31.10;66.07;100921.66;5065904;27;69613;-39
2022/03/20 01:34:50;;;;;;;29.53;23.83;;;;;;;31.07;67.09;100919.41;5063517;27;65322;-38
2022/03/20 01:37:20;;;;;;;43.88;25.38;;;;;;;31.15;66.57;100921.03;5064706;27;70011;-38
2022/03/20 01:39:52;;;;;;;29.93;22.67;;;;;;;31.19;66.91;100930.34;5066324;27;65791;-37
2022/03/20 01:42:24;;;;;;;27.27;20.90;;;;;;;31.23;66.50;100934.28;5063320;28;70064;-38
2022/03/20 01:44:54;;;;;;;26.02;20.10;;;;;;;31.24;65.78;100940.53;5071284;27;66242;-37
2022/03/20 01:47:25;;;;;;;22.42;19.77;;;;;;;31.25;66.25;100943.00;5074121;28;70119;-38
2022/03/20 01:49:56;;;;;;;26.67;19.30;;;;;;;31.27;66.18;100934.66;5068959;28;66313;-38
2022/03/20 01:52:27;;;;;;;20.90;18.48;;;;;;;31.36;66.86;100941.50;5070322;27;70340;-38
2022/03/20 01:54:58;;;;;;;20.08;16.92;;;;;;;31.41;64.35;100919.16;5073093;28;66686;-37
2022/03/20 01:57:30;;;;;;;17.77;15.88;;;;;;;31.61;63.65;100945.00;5078119;27;70213;-37
2022/03/20 02:00:01;;;;;;;18.63;16.30;;;;;;;31.70;63.49;100934.69;5069545;27;65316;-37
2022/03/20 02:02:40;;;;;;;16.50;15.07;;;;;;;31.74;63.28;100918.81;5076030;28;70177;-37
2022/03/20 02:05:12;;;;;;;17.02;15.63;;;;;;;31.87;63.25;100940.34;5068093;27;65683;-37
2022/03/20 02:07:47;;;;;;;17.30;15.60;;;;;;;31.90;62.89;100929.06;5062604;28;69735;-37
2022/03/20 02:10:17;;;;;;;18.45;16.50;;;;;;;31.94;62.73;100924.03;5076142;27;66847;-38
2022/03/20 02:12:48;;;;;;;20.35;16.30;;;;;;;31.97;62.34;100918.16;5072836;28;70572;-39
2022/03/20 02:15:21;;;;;;;16.92;15.13;;;;;;;32.13;62.36;100944.69;5073814;27;66925;-38
2022/03/20 02:17:56;;;;;;;17.25;15.52;;;;;;;32.18;62.07;100946.69;5070525;28;70056;-37
2022/03/20 02:20:29;;;;;;;17.85;16.13;;;;;;;32.19;62.20;100938.34;5072112;28;66277;-38
2022/03/20 02:23:00;;;;;;;16.00;14.60;;;;;;;32.22;61.86;100928.91;5072194;28;69917;-38
2022/03/20 02:25:31;;;;;;;16.17;14.63;;;;;;;32.29;61.59;100926.94;5064308;28;65410;-37
2022/03/20 02:28:02;;;;;;;14.88;13.68;;;;;;;32.33;61.71;100922.72;5066998;28;71161;-38
2022/03/20 02:30:33;;;;;;;18.42;14.50;;;;;;;32.34;61.30;100918.94;5073480;27;65400;-39
2022/03/20 02:33:04;;;;;;;15.95;14.38;;;;;;;32.43;61.06;100925.72;5068735;28;70557;-38
2022/03/20 02:35:36;;;;;;;15.60;14.03;;;;;;;32.46;61.39;100917.13;5064828;27;66820;-39
2022/03/20 02:38:10;;;;;;;15.30;13.52;;;;;;;32.40;60.83;100896.31;5078653;27;70130;-38
2022/03/20 02:40:41;;;;;;;15.77;13.93;;;;;;;32.55;61.05;100916.81;5063873;28;65953;-38
2022/03/20 02:43:13;;;;;;;15.43;13.97;;;;;;;32.51;60.82;100904.75;5077318;27;70498;-38
2022/03/20 02:45:44;;;;;;;15.50;13.80;;;;;;;32.59;60.77;100898.97;5078607;27;66749;-38
2022/03/20 02:48:15;;;;;;;15.00;13.60;;;;;;;32.62;60.66;100893.91;5067540;28;69446;-39
2022/03/20 02:50:47;;;;;;;14.45;13.00;;;;;;;32.64;60.31;100885.53;5079836;28;66049;-38
2022/03/20 02:53:19;;;;;;;14.48;13.10;;;;;;;32.68;60.33;100889.44;5077919;27;70494;-38
2022/03/20 02:55:49;;;;;;;16.42;13.27;;;;;;;32.72;60.13;100871.63;5065075;28;65711;-38
2022/03/20 02:58:20;;;;;;;17.40;13.60;;;;;;;32.75;60.14;100873.88;5079185;27;69634;-38
2022/03/20 03:00:52;;;;;;;14.77;13.43;;;;;;;32.73;60.23;100856.97;5077061;28;66306;-37
2022/03/20 03:03:24;;;;;;;15.32;13.88;;;;;;;32.82;59.78;100855.59;5066839;28;69980;-38
2022/03/20 03:05:56;;;;;;;14.65;13.10;;;;;;;32.85;59.84;100855.13;5064737;27;65313;-38
2022/03/20 03:11:16;;;;;;;14.27;13.18;;;;;;;32.89;59.68;100861.72;5075202;28;66265;-40
2022/03/20 03:13:47;;;;;;;20.10;15.82;;;;;;;32.58;60.97;100848.47;5072599;28;69786;-40
2022/03/20 03:16:18;;;;;;;21.35;16.02;;;;;;;32.52;60.95;100847.50;5071234;28;66452;-40
2022/03/20 03:18:49;;;;;;;33.50;17.95;;;;;;;32.43;60.60;100836.13;5069607;28;69434;-39
2022/03/20 03:21:20;;;;;;;18.83;16.83;;;;;;;32.37;60.74;100828.06;5064710;28;65188;-38
2022/03/20 03:23:51;;;;;;;20.55;18.45;;;;;;;32.39;60.95;100829.47;5064103;28;70002;-40
2022/03/20 03:26:22;;;;;;;28.50;17.83;;;;;;;32.34;61.16;100823.91;5071214;28;65467;-37
2022/03/20 03:28:53;;;;;;;24.73;19.25;;;;;;;32.39;60.63;100818.63;5077801;27;69593;-40
2022/03/20 03:31:24;;;;;;;20.35;17.95;;;;;;;32.32;60.99;100817.91;5077995;27;66394;-40
2022/03/20 03:36:44;;;;;;;40.53;17.95;;;;;;;32.49;60.47;100813.50;5074850;28;66778;-39
2022/03/20 03:39:15;;;;;;;34.20;17.20;;;;;;;32.53;60.65;100791.31;5070219;27;69803;-37
2022/03/20 03:41:46;;;;;;;19.53;17.40;;;;;;;32.66;59.41;100785.66;5077223;27;66076;-37
2022/03/20 03:44:19;;;;;;;20.52;16.45;;;;;;;32.78;58.96;100789.19;5083231;27;70889;-37
2022/03/20 03:46:52;;;;;;;17.52;15.88;;;;;;;32.89;58.30;100784.84;5074517;27;66707;-36
2022/03/20 03:49:23;;;;;;;20.83;17.15;;;;;;;32.86;59.61;100796.19;5073296;28;70335;-37
2022/03/20 03:51:55;;;;;;;19.80;17.23;;;;;;;32.81;59.33;100793.34;5070578;28;66422;-38
2022/03/20 03:54:26;;;;;;;18.88;17.00;;;;;;;32.75;59.75;100784.25;5067493;28;69274;-38
2022/03/20 03:56:58;;;;;;;17.67;16.08;;;;;;;32.78;59.11;100778.31;5069209;28;66228;-39
2022/03/20 03:59:29;;;;;;;16.58;15.15;;;;;;;32.69;58.64;100768.88;5053596;28;69930;-40
2022/03/20 04:02:00;;;;;;;15.27;14.00;;;;;;;32.73;58.26;100759.19;5075400;28;66753;-39
2022/03/20 04:04:31;;;;;;;15.30;13.03;;;;;;;32.78;57.95;100767.47;5070239;28;69910;-40
2022/03/20 04:07:04;;;;;;;19.45;14.98;;;;;;;32.45;57.93;100711.81;5076430;28;65800;-39
2022/03/20 04:09:35;;;;;;;17.50;15.73;;;;;;;32.79;57.78;100758.28;5072313;28;69248;-40
2022/03/20 04:12:06;;;;;;;19.30;15.18;;;;;;;32.90;57.42;100770.16;5065994;28;65331;-39
2022/03/20 04:14:37;;;;;;;17.77;15.70;;;;;;;32.92;57.63;100757.19;5072163;28;70780;-39
2022/03/20 04:17:08;;;;;;;17.92;14.93;;;;;;;32.87;58.37;100749.75;5078601;27;65895;-39
2022/03/20 04:19:39;;;;;;;20.83;14.40;;;;;;;32.82;59.19;100757.78;5057748;28;70088;-38
2022/03/20 04:22:09;;;;;;;18.48;14.85;;;;;;;32.74;59.31;100733.69;5077014;28;65464;-37
2022/03/20 04:24:40;;;;;;;20.67;14.23;;;;;;;32.75;59.75;100740.78;5073920;27;70472;-39
2022/03/20 04:27:13;;;;;;;14.90;13.57;;;;;;;32.78;60.57;100740.31;5081921;28;66014;-38
2022/03/20 04:29:44;;;;;;;14.20;12.93;;;;;;;32.77;60.65;100738.66;5084942;27;69655;-38
2022/03/20 04:32:16;;;;;;;15.10;13.40;;;;;;;32.73;60.75;100732.03;5061995;28;66328;-39
2022/03/20 04:34:47;;;;;;;;;;;;;;;32.46;61.76;100727.06;5062626;28;69570;-39
2022/03/20 04:37:18;;;;;;;14.02;12.85;;;;;;;32.66;61.07;100715.03;5081143;28;66028;-37
2022/03/20 04:39:49;;;;;;;13.98;12.70;;;;;;;32.94;60.62;100728.72;5069464;27;70140;-38
2022/03/20 04:42:20;;;;;;;14.05;12.27;;;;;;;33.08;59.72;100723.88;5076937;28;65250;-38
2022/03/20 04:44:50;;;;;;;12.98;11.95;;;;;;;33.17;59.22;100718.91;5081358;28;70354;-38
2022/03/20 04:58:40;;;;;;;12.60;11.57;;;;;;;33.51;57.93;100700.81;5070493;27;65474;-38
2022/03/20 05:01:11;;;;;;;13.00;12.02;;;;;;;33.58;57.87;100696.09;5065494;28;69486;-38
2022/03/20 05:03:42;;;;;;;14.10;13.02;;;;;;;33.61;57.58;100694.78;5062876;28;66911;-38
2022/03/20 05:06:13;;;;;;;13.70;12.37;;;;;;;33.63;57.47;100684.50;5065228;28;71656;-39
2022/03/20 05:08:45;;;;;;;13.40;12.18;;;;;;;33.67;57.12;100682.94;5073113;28;66390;-38
2022/03/20 05:14:04;;;;;;;14.27;13.07;;;;;;;33.73;57.21;100671.06;5084291;27;65813;-39
2022/03/20 05:16:35;;;;;;;14.65;13.30;;;;;;;33.76;57.00;100659.69;5077551;28;70044;-37
2022/03/20 05:19:06;;;;;;;13.75;12.50;;;;;;;33.81;56.76;100667.13;5081785;27;66042;-38
2022/03/20 05:21:36;;;;;;;14.70;13.55;;;;;;;33.75;56.60;100658.06;5073316;28;69217;-39
2022/03/20 05:24:09;;;;;;;14.27;12.88;;;;;;;33.85;56.54;100656.56;5060447;28;65863;-38
2022/03/20 05:26:40;;;;;;;15.27;13.65;;;;;;;33.80;56.39;100649.97;5078378;27;70269;-39
2022/03/20 05:29:11;;;;;;;15.20;13.93;;;;;;;33.85;56.79;100651.13;5072915;28;65751;-39
2022/03/20 05:31:41;;;;;;;14.40;13.50;;;;;;;33.87;56.82;100649.81;5072966;28;71006;-38
2022/03/20 05:34:12;;;;;;;17.88;14.63;;;;;;;33.91;56.87;100642.00;5073254;28;66101;-37
2022/03/20 05:36:44;;;;;;;14.43;13.30;;;;;;;33.91;56.52;100640.09;5069971;28;70665;-37
2022/03/20 05:39:14;;;;;;;21.60;14.45;;;;;;;33.93;56.72;100637.13;5079736;28;66475;-40
2022/03/20 05:41:51;;;;;;;15.43;14.00;;;;;;;33.92;56.45;100624.59;5080025;28;70215;-39
2022/03/20 05:44:24;;;;;;;16.42;14.63;;;;;;;33.70;56.80;100619.88;5073551;27;65633;-37
2022/03/20 05:46:57;;;;;;;16.38;15.07;;;;;;;33.40;55.39;100627.47;5072578;28;70315;-38
2022/03/20 05:49:28;;;;;;;21.63;14.60;;;;;;;33.19;55.41;100627.09;5073698;28;66112;-37
2022/03/20 05:51:59;;;;;;;16.60;14.90;;;;;;;33.02;54.87;100621.59;5066584;28;70095;-36
2022/03/20 05:54:31;;;;;;;15.45;14.02;;;;;;;32.86;53.56;100616.88;5054501;28;66653;-35
2022/03/20 05:59:54;;;;;;;14.07;12.85;;;;;;;32.59;51.85;100600.28;5070748;28;65897;-36
2022/03/20 06:02:24;;;;;;;17.40;13.32;;;;;;;32.52;51.41;100605.03;5074015;28;69590;-35
2022/03/20 06:04:55;;;;;;;13.25;12.02;;;;;;;32.38;50.52;100588.94;5072269;28;67306;-35
2022/03/20 06:07:26;;;;;;;14.25;12.82;;;;;;;32.35;49.91;100594.84;5070982;28;70013;-36
2022/03/20 06:09:57;;;;;;;18.10;12.85;;;;;;;32.32;49.17;100584.47;5073913;27;66076;-35
2022/03/20 06:12:28;;;;;;;16.33;11.30;;;;;;;32.24;48.68;100582.13;5056581;28;70018;-36
2022/03/20 06:14:59;;;;;;;12.55;11.60;;;;;;;32.24;48.14;100588.38;5081354;27;66282;-35
2022/03/20 06:17:30;;;;;;;12.32;11.10;;;;;;;32.15;47.69;100594.38;5077039;27;70845;-35
2022/03/20 06:20:00;;;;;;;12.23;11.32;;;;;;;32.15;47.54;100597.06;5078597;28;66102;-35
2022/03/20 06:22:32;;;;;;;12.43;11.60;;;;;;;32.08;46.98;100604.53;5077454;28;69216;-36
2022/03/20 06:25:09;;;;;;;11.73;10.85;;;;;;;31.64;46.60;100544.31;5078187;27;66241;-35
2022/03/20 06:27:50;;;;;;;12.15;11.13;;;;;;;32.05;45.83;100589.53;5073948;28;69870;-35
2022/03/20 06:30:21;;;;;;;11.32;10.55;;;;;;;31.97;45.64;100577.16;5079197;27;66834;-36
2022/03/20 06:32:52;;;;;;;11.97;10.87;;;;;;;31.89;45.54;100566.59;5066441;27;70609;-35
2022/03/20 06:35:22;;;;;;;11.32;10.50;;;;;;;31.92;45.74;100563.47;5077494;28;66584;-35
2022/03/20 06:37:54;;;;;;;11.15;10.52;;;;;;;31.93;45.65;100565.13;5083071;27;70009;-34
2022/03/20 06:40:25;;;;;;;12.45;11.55;;;;;;;31.87;45.04;100571.44;5074357;27;65122;-34
2022/03/20 06:42:55;;;;;;;11.77;11.00;;;;;;;31.86;44.81;100575.22;5070702;27;70037;-35
2022/03/20 06:45:26;;;;;;;12.10;11.00;;;;;;;31.87;44.82;100570.63;5073167;28;66136;-34
2022/03/20 06:48:00;;;;;;;11.25;10.57;;;;;;;31.84;44.06;100566.47;5070527;28;69092;-34
2022/03/20 06:50:30;;;;;;;10.50;9.63;;;;;;;31.81;44.37;100566.94;5067154;28;65581;-35
2022/03/20 06:53:04;;;;;;;9.93;9.35;;;;;;;31.79;43.92;100575.34;5072011;28;70381;-34
2022/03/20 06:55:35;;;;;;;10.15;9.55;;;;;;;31.82;43.97;100574.88;5070961;28;66630;-36
2022/03/20 06:58:06;;;;;;;9.98;9.35;;;;;;;31.78;43.67;100572.84;5079783;28;69228;-34
2022/03/20 07:00:37;;;;;;;9.90;9.27;;;;;;;31.75;43.40;100557.88;5079517;27;67489;-34
2022/03/20 07:03:09;;;;;;;10.32;9.60;;;;;;;31.66;43.30;100558.47;5079270;28;69822;-32
2022/03/20 07:05:40;;;;;;;9.88;9.25;;;;;;;31.68;43.17;100573.44;5079311;27;66516;-35
2022/03/20 07:08:10;;;;;;;8.57;8.07;;;;;;;31.67;43.28;100576.38;5075866;27;69446;-34
2022/03/20 07:10:42;;;;;;;8.60;8.10;;;;;;;31.57;42.66;100560.69;5079478;27;66544;-33
2022/03/20 07:16:02;;;;;;;8.13;7.63;;;;;;;31.52;42.19;100553.25;5067439;27;66307;-35
2022/03/20 07:18:36;;;;;;;7.50;7.10;;;;;;;31.51;41.93;100546.19;5069726;28;70054;-36
2022/03/20 07:21:08;;;;;;;8.10;7.60;;;;;;;31.49;41.63;100537.44;5079172;27;66053;-33
2022/03/20 07:23:38;;;;;;;;;;;;;;;31.14;42.34;100546.25;5078919;28;70545;-35
2022/03/20 07:31:48;;;;;;;6.55;6.15;;;;;;;31.37;41.29;100555.53;5075500;27;66541;-35
2022/03/20 07:34:19;;;;;;;;;;;;;;;31.03;41.72;100566.00;5066363;28;69824;-36
2022/03/20 07:36:50;;;;;;;6.28;5.97;;;;;;;31.32;40.96;100553.53;5071377;27;65486;-35
2022/03/20 07:39:21;;;;;;;6.05;5.68;;;;;;;31.31;40.76;100561.88;5069066;28;68703;-36
2022/03/20 07:41:51;;;;;;;5.53;5.22;;;;;;;30.99;40.78;100512.53;5072697;27;66283;-34
2022/03/20 07:44:26;;;;;;;5.72;5.43;;;;;;;31.30;40.77;100561.03;5071196;27;69618;-35
2022/03/20 07:46:56;;;;;;;6.10;5.70;;;;;;;31.23;40.90;100548.63;5072506;28;65036;-35
2022/03/20 07:49:27;;;;;;;5.70;5.30;;;;;;;31.23;40.85;100548.63;5069393;28;69982;-35
2022/03/20 07:51:58;;;;;;;7.88;5.15;;;;;;;31.19;41.00;100547.47;5074102;27;66931;-35
2022/03/20 07:54:29;;;;;;;5.47;5.05;;;;;;;31.15;41.30;100545.22;5070476;28;71160;-35
2022/03/20 07:57:00;;;;;;;6.45;5.50;;;;;;;31.13;42.84;100536.47;5069307;28;65742;-35
2022/03/20 07:59:32;;;;;;;5.82;4.80;;;;;;;31.22;43.39;100542.41;5074376;28;69690;-36
2022/03/20 08:02:03;;;;;;;5.68;5.28;;;;;;;31.20;42.85;100551.81;5091755;27;66302;-36
2022/03/20 08:04:34;;;;;;;4.85;4.65;;;;;;;31.15;42.97;100541.69;5057252;28;70388;-36
2022/03/20 08:07:05;;;;;;;5.05;4.75;;;;;;;31.06;42.33;100524.91;5072793;27;66541;-35
2022/03/20 08:09:36;;;;;;;5.70;5.35;;;;;;;31.13;42.18;100547.31;5064235;28;69204;-34
2022/03/20 08:12:07;;;;;;;5.25;4.95;;;;;;;31.09;41.92;100538.00;5069370;27;67226;-35
2022/03/20 08:14:58;;;;;;;5.25;4.53;;;;;;;31.08;41.92;100539.06;5035832;28;69076;-37
2022/03/20 08:17:32;;;;;;;4.80;4.50;;;;;;;30.98;41.84;100516.28;5045777;28;66060;-35
2022/03/20 08:20:03;;;;;;;5.90;4.60;;;;;;;31.14;41.54;100538.13;5069723;28;69537;-34
2022/03/20 08:22:34;;;;;;;4.93;4.65;;;;;;;31.10;41.28;100533.41;5065443;28;65587;-34
2022/03/20 08:25:06;;;;;;;5.22;4.82;;;;;;;31.11;41.34;100529.63;5072102;28;70468;-34
2022/03/20 08:27:49;;;;;;;4.45;4.18;;;;;;;30.94;41.38;100503.19;5061015;28;65047;-35
2022/03/20 08:30:20;;;;;;;4.10;3.90;;;;;;;31.07;41.31;100518.44;5062032;28;70408;-35
2022/03/20 08:32:53;;;;;;;4.28;4.00;;;;;;;31.07;41.03;100506.78;5076536;27;66294;-35
2022/03/20 08:35:25;;;;;;;5.00;4.57;;;;;;;30.80;41.06;100463.00;5066442;27;70103;-35
2022/03/20 08:37:56;;;;;;;5.80;3.53;;;;;;;31.05;41.23;100500.78;5074519;28;65981;-35
2022/03/20 08:40:27;;;;;;;4.80;4.40;;;;;;;31.07;41.09;100499.47;5070525;28;69389;-34
2022/03/20 08:42:57;;;;;;;4.43;4.07;;;;;;;31.07;41.62;100502.19;5062478;27;65948;-35
2022/03/20 08:45:31;;;;;;;4.40;3.97;;;;;;;31.03;41.61;100511.81;5072588;28;70273;-34
2022/03/20 08:48:02;;;;;;;4.22;3.92;;;;;;;30.96;41.39;100489.44;5076253;28;66494;-36
2022/03/20 08:50:33;;;;;;;7.13;3.95;;;;;;;31.04;41.59;100496.41;5064196;28;70184;-35
2022/03/20 08:53:04;;;;;;;4.10;3.85;;;;;;;31.01;41.47;100497.72;5066686;27;65166;-34
2022/03/20 08:55:35;;;;;;;4.20;4.00;;;;;;;30.98;41.64;100490.03;5074741;27;70692;-35
2022/03/20 08:58:05;;;;;;;4.40;4.10;;;;;;;30.99;41.07;100488.97;5068989;28;66327;-36
2022/03/20 09:00:38;;;;;;;3.30;3.10;;;;;;;31.00;41.03;100501.44;5067171;28;69398;-35
2022/03/20 09:03:10;;;;;;;3.25;3.05;;;;;;;31.00;41.45;100506.03;5076454;28;65899;-35
2022/03/20 09:05:41;;;;;;;3.75;3.53;;;;;;;31.01;41.37;100519.38;5072354;28;70222;-35
2022/03/20 09:08:12;;;;;;;4.18;3.97;;;;;;;31.02;41.20;100526.44;5068269;27;65798;-35
2022/03/20 09:10:43;;;;;;;3.80;3.60;;;;;;;31.09;41.82;100520.91;5073048;28;70079;-35
2022/03/20 09:13:13;;;;;;;3.70;3.50;;;;;;;31.08;41.44;100525.50;5073598;28;66615;-34
2022/03/20 09:15:44;;;;;;;13.07;3.40;;;;;;;31.09;41.28;100521.75;5077803;28;69024;-35
2022/03/20 09:21:08;;;;;;;5.10;3.67;;;;;;;31.10;40.66;100517.16;5090267;27;70038;-36
2022/03/20 09:23:38;;;;;;;3.47;3.28;;;;;;;31.08;40.69;100516.56;5070994;28;65499;-35
2022/03/20 09:26:10;;;;;;;6.63;3.80;;;;;;;31.09;40.21;100516.34;5069463;28;69417;-36
2022/03/20 09:28:40;;;;;;;3.85;3.55;;;;;;;31.08;41.86;100517.38;5076349;28;66683;-36
2022/03/20 09:31:13;;;;;;;3.60;3.40;;;;;;;31.05;41.49;100520.56;5076567;28;70397;-36
2022/03/20 09:33:44;;;;;;;7.75;3.25;;;;;;;30.94;40.77;100502.38;5072237;28;65389;-37
2022/03/20 09:36:15;;;;;;;;;;;;;;;30.70;41.07;100523.91;5075623;27;70119;-36
2022/03/20 09:38:45;;;;;;;3.35;3.15;;;;;;;30.96;40.21;100513.81;5074905;27;67156;-34
2022/03/20 09:41:17;;;;;;;4.45;3.35;;;;;;;30.88;39.90;100514.13;5071237;27;69150;-36
2022/03/20 09:43:47;;;;;;;4.03;3.63;;;;;;;30.98;43.34;100514.41;5067135;27;66037;-35
2022/03/20 09:46:21;;;;;;;7.03;4.35;;;;;;;31.15;48.07;100499.16;5076930;27;69885;-37
2022/03/20 09:48:55;;;;;;;10.02;4.70;;;;;;;31.32;50.85;100493.06;5066507;28;66098;-36
2022/03/20 09:51:26;;;;;;;8.57;5.45;;;;;;;31.47;52.57;100496.19;5079407;28;69475;-35
2022/03/20 09:53:57;;;;;;;6.57;4.73;;;;;;;31.64;53.14;100500.91;5072485;28;66629;-35
2022/03/20 09:56:29;;;;;;;5.45;4.63;;;;;;;31.78;54.11;100510.47;5072772;28;70327;-34
2022/03/20 09:58:59;;;;;;;5.70;4.57;;;;;;;31.86;54.76;100512.00;5070335;28;65121;-35
2022/03/20 10:01:32;;;;;;;6.00;5.27;;;;;;;31.94;54.66;100509.81;5072751;27;70001;-37
2022/03/20 10:04:11;;;;;;;5.18;4.80;;;;;;;31.97;55.56;100490.34;5068476;28;65366;-37
2022/03/20 10:06:43;;;;;;;5.65;5.10;;;;;;;32.07;55.75;100499.75;5067101;28;70128;-36
2022/03/20 10:09:16;;;;;;;7.60;5.88;;;;;;;31.99;56.02;100482.78;5073375;27;66386;-36
2022/03/20 10:12:00;;;;;;;9.82;5.63;;;;;;;32.18;56.14;100497.03;5067184;28;70726;-36
2022/03/20 10:14:31;;;;;;;9.30;6.13;;;;;;;32.26;56.53;100514.84;5068848;27;65328;-35
2022/03/20 10:17:17;;;;;;;7.60;5.50;;;;;;;32.09;56.74;100493.03;5071578;27;70237;-35
2022/03/20 10:19:50;;;;;;;8.88;5.55;;;;;;;32.34;56.41;100510.94;5070934;28;65460;-35
2022/03/20 10:22:21;;;;;;;8.85;5.78;;;;;;;32.34;56.17;100517.19;5063701;28;70413;-36
2022/03/20 10:24:52;;;;;;;6.05;5.10;;;;;;;32.28;56.76;100512.72;5067168;28;64842;-35
2022/03/20 10:27:24;;;;;;;7.82;5.18;;;;;;;32.38;57.46;100521.09;5065425;28;70552;-36
2022/03/20 10:30:00;;;;;;;5.88;5.32;;;;;;;32.43;57.83;100523.91;5078134;28;67160;-36
2022/03/20 10:32:32;;;;;;;8.95;6.22;;;;;;;32.13;58.19;100474.41;5065041;28;69942;-35
2022/03/20 10:35:10;;;;;;;7.03;5.80;;;;;;;32.15;58.30;100478.53;5075515;27;65354;-35
2022/03/20 10:37:52;;;;;;;12.15;6.82;;;;;;;32.17;58.12;100478.28;5074001;28;70377;-36
2022/03/20 10:40:28;;;;;;;14.52;6.72;;;;;;;32.54;58.28;100530.41;5071231;27;66783;-36
2022/03/20 10:43:18;;;;;;;15.20;6.35;;;;;;;32.45;58.64;100529.06;5075028;27;70051;-34
2022/03/20 10:46:04;;;;;;;12.63;6.60;;;;;;;32.60;58.62;100537.59;5074932;28;65552;-34
2022/03/20 10:48:39;;;;;;;9.25;7.07;;;;;;;32.61;58.72;100539.22;5070527;27;69675;-35
2022/03/20 10:51:10;;;;;;;7.45;6.28;;;;;;;32.57;58.96;100534.50;5074244;28;66320;-35
2022/03/20 10:53:58;;;;;;;10.15;6.93;;;;;;;32.53;59.03;100536.88;5067851;27;69934;-35
2022/03/20 10:56:29;;;;;;;12.10;7.30;;;;;;;32.59;58.93;100518.81;5073097;28;66712;-36
2022/03/20 10:59:02;;;;;;;10.30;7.43;;;;;;;32.57;58.13;100534.50;5071015;27;69836;-35
2022/03/20 11:01:37;;;;;;;13.52;7.45;;;;;;;32.49;58.31;100517.53;5067267;28;66351;-35
2022/03/20 11:04:11;;;;;;;10.57;8.23;;;;;;;32.36;58.82;100493.34;5063019;28;70045;-36
2022/03/20 11:06:46;;;;;;;9.02;8.13;;;;;;;32.15;58.69;100453.25;5059083;28;66436;-37
2022/03/20 11:09:17;;;;;;;8.10;7.45;;;;;;;32.41;58.67;100512.47;5065462;27;69566;-35
2022/03/20 11:11:51;;;;;;;10.85;8.02;;;;;;;32.38;57.87;100502.06;5062338;28;66117;-36
2022/03/20 11:14:25;;;;;;;8.27;7.78;;;;;;;32.13;58.70;100456.22;5059432;28;70099;-37
2022/03/20 11:17:12;;;;;;;8.68;7.78;;;;;;;32.14;58.99;100467.91;5064679;28;66569;-36
2022/03/20 11:19:49;;;;;;;8.32;7.72;;;;;;;32.51;58.74;100519.19;5066223;28;70278;-36
2022/03/20 11:22:22;;;;;;;8.10;7.60;;;;;;;31.75;58.29;100405.19;5065292;28;66034;-36
2022/03/20 11:24:55;;;;;;;7.95;7.22;;;;;;;32.46;58.42;100531.59;5066925;28;70424;-35
2022/03/20 11:27:34;;;;;;;9.20;7.95;;;;;;;32.44;58.48;100533.69;5067905;28;65290;-35
2022/03/20 11:30:07;;;;;;;8.45;7.95;;;;;;;32.42;58.74;100529.56;5070987;28;69399;-36
2022/03/20 11:32:38;;;;;;;8.63;8.13;;;;;;;32.42;58.90;100529.56;5070665;28;65591;-37
2022/03/20 11:35:10;;;;;;;13.50;9.48;;;;;;;32.36;59.19;100525.91;5073554;28;70029;-35
2022/03/20 11:37:43;;;;;;;17.38;9.98;;;;;;;32.36;59.32;100536.78;5054744;28;65951;-36
2022/03/20 11:40:20;;;;;;;10.13;9.30;;;;;;;32.38;59.28;100540.09;5065191;27;70717;-36
2022/03/20 11:43:16;;;;;;;10.65;9.73;;;;;;;32.24;59.17;100550.38;5069379;27;66796;-36
2022/03/20 11:46:25;;;;;;;10.57;9.68;;;;;;;32.25;59.68;100551.19;5062321;28;70249;-36
2022/03/20 11:49:17;;;;;;;9.93;9.23;;;;;;;32.24;59.71;100553.09;5066118;28;66320;-37
2022/03/20 11:51:50;;;;;;;;;;;;;;;32.00;60.09;100554.97;5073071;28;70131;-35
2022/03/20 11:54:49;;;;;;;11.32;9.63;;;;;;;32.17;59.58;100562.41;5072068;27;65194;-36
2022/03/20 11:57:29;;;;;;;11.27;9.18;;;;;;;32.28;59.51;100567.00;5067300;28;69210;-36
2022/03/20 12:00:13;;;;;;;11.38;9.15;;;;;;;31.94;60.00;100520.66;5062578;28;66603;-37
2022/03/20 12:03:08;;;;;;;10.15;9.02;;;;;;;32.24;60.52;100573.97;5065780;27;70222;-35
2022/03/20 12:05:42;;;;;;;10.32;9.35;;;;;;;32.38;60.99;100577.28;5067199;28;65995;-34
2022/03/20 12:08:40;;;;;;;9.60;8.65;;;;;;;32.30;61.26;100586.59;5069775;28;69281;-37
2022/03/20 12:11:22;;;;;;;9.90;9.20;;;;;;;32.40;61.54;100594.97;5070211;28;66117;-37
2022/03/20 12:14:01;;;;;;;10.50;9.65;;;;;;;32.40;61.60;100594.97;5070272;28;68897;-36
2022/03/20 12:16:45;;;;;;;10.88;9.77;;;;;;;32.38;61.80;100604.41;5071176;27;65621;-35